Time;durP1;ratioP1;P1;durP2;ratioP2;P2;SDS_P1;SDS_P2;PMS_P1;PMS_P2;Temp;Humidity;BMP_temperature;BMP_pressure;BME280_temperature;BME280_humidity;BME280_pressure;Samples;Min_cycle;Max_cycle;Signal;HPM_P1;HPM_P2
2023/11/10 00:03:52;;;;;;;1.52;0.95;;;;;;;7.62;100.00;150586.06;10376641;28;20046;-68
2023/11/10 00:08:55;;;;;;;1.02;0.90;;;;;;;7.47;100.00;150549.94;10375930;28;20042;-68
2023/11/10 00:13:56;;;;;;;1.90;0.90;;;;;;;7.31;100.00;150510.03;10376387;28;20049;-68
2023/11/10 00:19:14;;;;;;;1.17;0.93;;;;;;;7.20;100.00;150481.69;10375840;28;20506;-68
2023/11/10 00:24:16;;;;;;;1.85;1.05;;;;;;;7.40;100.00;150530.66;10375315;28;20045;-68
2023/11/10 00:29:19;;;;;;;1.30;1.10;;;;;;;7.15;100.00;150467.53;10375775;28;20076;-68
2023/11/10 00:34:21;;;;;;;1.17;1.08;;;;;;;7.01;100.00;150432.78;10375107;28;20464;-68
2023/11/10 00:39:23;;;;;;;1.20;1.08;;;;;;;7.06;100.00;150445.66;10373591;28;20038;-68
2023/11/10 00:44:27;;;;;;;1.45;1.15;;;;;;;7.33;100.00;150515.16;10374803;28;20046;-68
2023/11/10 00:49:29;;;;;;;2.15;1.20;;;;;;;7.13;100.00;150463.69;10373171;28;20077;-68
2023/11/10 00:54:30;;;;;;;1.88;1.15;;;;;;;7.16;100.00;150471.38;10374491;28;20046;-68
2023/11/10 00:59:32;;;;;;;1.10;1.00;;;;;;;7.13;100.00;150462.34;10372917;28;20100;-68
2023/11/10 01:04:34;;;;;;;1.98;1.10;;;;;;;7.12;100.00;150459.78;10374156;28;20066;-68
2023/11/10 01:09:36;;;;;;;5.07;1.00;;;;;;;6.95;100.00;150418.63;10374067;28;20038;-68
2023/11/10 01:14:38;;;;;;;3.03;1.13;;;;;;;6.72;100.00;150359.38;10372247;28;20062;-68
2023/11/10 01:19:40;;;;;;;1.30;1.13;;;;;;;6.63;100.00;150336.19;10374025;28;20045;-68
2023/11/10 01:24:41;;;;;;;1.73;1.40;;;;;;;6.47;100.00;150296.31;10373872;28;20124;-69
2023/11/10 01:29:44;;;;;;;1.10;0.88;;;;;;;6.37;100.00;150270.56;10373154;28;20058;-70
2023/11/10 01:34:46;;;;;;;1.20;1.10;;;;;;;6.42;100.00;150284.75;10372818;28;20089;-69
2023/11/10 01:39:48;;;;;;;1.95;1.25;;;;;;;6.15;100.00;150216.50;10374298;28;20049;-69
2023/11/10 01:44:49;;;;;;;1.20;1.10;;;;;;;6.35;100.00;150265.44;10372625;28;20140;-69
2023/11/10 01:49:52;;;;;;;1.83;1.63;;;;;;;6.14;100.00;150213.94;10372435;28;20456;-70
2023/11/10 01:54:54;;;;;;;1.02;0.93;;;;;;;6.06;100.00;150194.66;10373955;28;20060;-70
2023/11/10 01:59:59;;;;;;;2.38;1.77;;;;;;;5.86;100.00;150143.16;10373700;28;20052;-70
2023/11/10 02:05:01;;;;;;;1.45;0.90;;;;;;;5.82;100.00;150132.84;10373487;28;20046;-70
2023/11/10 02:10:03;;;;;;;1.48;1.38;;;;;;;5.61;100.00;150078.81;10373839;28;20509;-70
2023/11/10 02:15:07;;;;;;;4.07;1.30;;;;;;;5.52;100.00;150058.22;10372594;28;20501;-70
2023/11/10 02:20:09;;;;;;;2.08;1.40;;;;;;;5.80;100.00;150127.72;10372275;28;20049;-70
2023/11/10 02:25:18;;;;;;;1.20;1.00;;;;;;;5.74;100.00;150112.25;10374458;28;20042;-70
2023/11/10 02:30:20;;;;;;;1.50;1.10;;;;;;;5.56;100.00;150068.53;10379568;28;20129;-70
2023/11/10 02:35:22;;;;;;;1.25;1.10;;;;;;;5.53;100.00;150060.84;10380429;28;20046;-69
2023/11/10 02:40:24;;;;;;;0.90;0.77;;;;;;;5.56;100.00;150068.53;10379070;28;20069;-70
2023/11/10 02:45:26;;;;;;;1.60;0.80;;;;;;;5.41;100.00;150029.97;10379725;28;20038;-70
2023/11/10 02:50:28;;;;;;;1.10;0.80;;;;;;;5.62;100.00;150081.38;10378405;28;20129;-69
2023/11/10 02:55:30;;;;;;;0.80;0.80;;;;;;;5.61;100.00;150078.81;10379422;28;20049;-70
2023/11/10 03:00:31;;;;;;;0.70;0.63;;;;;;;5.68;100.00;150098.13;10378730;28;20448;-70
2023/11/10 03:05:34;;;;;;;1.10;0.80;;;;;;;5.59;100.00;150074.97;10377654;28;20046;-70
2023/11/10 03:10:36;;;;;;;0.90;0.82;;;;;;;5.66;100.00;150091.66;10378936;28;20065;-70
2023/11/10 03:15:37;;;;;;;0.65;0.60;;;;;;;5.81;100.00;150130.28;10377268;28;20038;-70
2023/11/10 03:20:40;;;;;;;0.50;0.50;;;;;;;6.39;100.00;150277.00;10377100;28;20116;-70
2023/11/10 03:25:42;;;;;;;1.00;0.60;;;;;;;6.47;100.00;150297.59;10378729;28;20444;-71
2023/11/10 03:30:44;;;;;;;0.50;0.30;;;;;;;6.76;100.00;150369.66;10377089;28;20046;-70
2023/11/10 03:35:46;;;;;;;0.32;0.32;;;;;;;7.30;100.00;150506.16;10375846;28;20045;-69
2023/11/10 03:40:49;;;;;;;0.43;0.30;;;;;;;7.55;100.00;150570.56;10378247;28;20097;-69
2023/11/10 03:45:51;;;;;;;0.40;0.30;;;;;;;7.62;100.00;150587.34;10377757;28;20037;-69
2023/11/10 03:50:53;;;;;;;0.30;0.30;;;;;;;7.59;100.00;150580.88;10377214;28;20050;-69
2023/11/10 03:55:55;;;;;;;0.40;0.35;;;;;;;7.79;100.00;150629.81;10377093;28;20041;-69
2023/11/10 04:00:57;;;;;;;0.30;0.30;;;;;;;7.84;100.00;150642.72;10376777;28;20050;-69
2023/11/10 04:05:59;;;;;;;0.77;0.30;;;;;;;7.79;99.41;150629.81;10376458;28;20053;-69
2023/11/10 04:11:01;;;;;;;1.10;0.20;;;;;;;7.73;100.00;150615.66;10376659;28;20124;-69
2023/11/10 04:16:03;;;;;;;1.23;1.00;;;;;;;7.65;100.00;150595.03;10375026;28;20065;-69
2023/11/10 04:21:05;;;;;;;1.17;1.02;;;;;;;7.61;100.00;150583.44;10376467;28;20097;-69
2023/11/10 04:26:07;;;;;;;1.00;0.90;;;;;;;7.53;100.00;150564.16;10376291;28;20493;-69
2023/11/10 04:31:13;;;;;;;1.00;0.90;;;;;;;7.44;100.00;150540.97;10376330;28;20121;-69
2023/11/10 04:36:16;;;;;;;1.13;0.90;;;;;;;7.59;100.00;150580.88;10376616;28;20044;-69
2023/11/10 04:41:21;;;;;;;0.93;0.60;;;;;;;7.63;100.00;150589.91;10376068;28;20045;-69
2023/11/10 04:46:23;;;;;;;1.05;0.50;;;;;;;7.70;100.00;150607.97;10376170;28;20070;-69
2023/11/10 04:51:27;;;;;;;0.50;0.50;;;;;;;7.62;100.00;150586.06;10375325;28;20077;-69
2023/11/10 04:56:30;;;;;;;0.70;0.70;;;;;;;7.59;100.00;150579.59;10376024;28;20045;-69
2023/11/10 05:01:39;;;;;;;0.85;0.57;;;;;;;7.52;100.00;150562.81;10374218;28;20065;-71
2023/11/10 05:06:41;;;;;;;0.90;0.80;;;;;;;7.56;100.00;150573.13;10375371;28;20068;-71
2023/11/10 05:11:46;;;;;;;0.68;0.60;;;;;;;7.76;100.00;150623.41;10375885;28;20124;-71
2023/11/10 05:16:48;;;;;;;1.25;0.82;;;;;;;7.84;100.00;150644.00;10375432;28;20085;-70
2023/11/10 05:21:50;;;;;;;0.70;0.70;;;;;;;8.15;99.90;150721.34;10374955;28;20111;-70
2023/11/10 05:26:52;;;;;;;1.27;1.00;;;;;;;8.27;99.32;150752.22;10375075;28;20116;-70
2023/11/10 05:31:57;;;;;;;1.25;0.95;;;;;;;8.34;96.49;150769.00;10374857;28;20050;-70
2023/11/10 05:36:58;;;;;;;1.40;0.90;;;;;;;8.39;96.37;150780.66;10374301;28;20049;-70
2023/11/10 05:42:00;;;;;;;1.85;1.20;;;;;;;8.33;98.62;150766.44;10375256;28;20052;-70
2023/11/10 05:47:03;;;;;;;1.23;1.13;;;;;;;8.55;96.17;150821.94;10374462;28;20045;-70
2023/11/10 05:52:05;;;;;;;0.80;0.80;;;;;;;8.67;93.46;150852.84;10375305;28;20478;-70
2023/11/10 05:57:07;;;;;;;1.20;1.10;;;;;;;8.81;90.60;150887.69;10373634;28;20046;-69
2023/11/10 06:02:09;;;;;;;1.33;1.08;;;;;;;8.80;91.44;150885.06;10378985;28;20092;-69
2023/11/10 06:07:11;;;;;;;1.40;1.20;;;;;;;8.82;90.21;150890.25;10380602;28;20386;-69
2023/11/10 06:12:13;;;;;;;1.40;1.30;;;;;;;8.80;90.81;150885.06;10381676;28;20045;-70
2023/11/10 06:17:14;;;;;;;1.52;1.00;;;;;;;8.88;90.03;150905.72;10380979;28;20124;-68
2023/11/10 06:22:16;;;;;;;1.35;1.20;;;;;;;8.75;90.28;150873.47;10380809;28;20053;-69
2023/11/10 06:27:18;;;;;;;1.80;1.00;;;;;;;8.78;89.17;150881.22;10379924;28;20552;-68
2023/11/10 06:32:20;;;;;;;1.20;1.10;;;;;;;8.72;89.13;150864.44;10379735;28;20057;-69
2023/11/10 06:37:23;;;;;;;1.33;1.20;;;;;;;8.67;89.58;150852.84;10380415;28;20045;-69
2023/11/10 06:42:26;;;;;;;0.80;0.80;;;;;;;8.73;88.47;150868.34;10378613;28;20129;-69
2023/11/10 06:47:29;;;;;;;1.10;1.00;;;;;;;8.66;89.50;150850.25;10382593;28;20104;-69
2023/11/10 06:52:31;;;;;;;1.05;0.95;;;;;;;8.60;89.71;150834.81;10379579;28;20072;-69
2023/11/10 06:57:33;;;;;;;1.55;1.20;;;;;;;8.63;90.37;150841.22;10378340;28;20517;-69
2023/11/10 07:02:35;;;;;;;1.42;1.13;;;;;;;8.68;90.01;150855.44;10379386;28;20077;-69
2023/11/10 07:07:36;;;;;;;1.13;1.08;;;;;;;8.52;91.59;150815.47;10379218;28;20038;-70
2023/11/10 07:12:38;;;;;;;1.30;1.20;;;;;;;8.44;93.05;150794.81;10377751;28;20042;-69
2023/11/10 07:17:43;;;;;;;1.35;1.02;;;;;;;8.47;93.48;150802.56;10378411;28;20042;-69
2023/11/10 07:22:45;;;;;;;1.17;1.00;;;;;;;8.35;94.05;150771.59;10378703;28;20108;-73
2023/11/10 07:27:47;;;;;;;1.15;0.90;;;;;;;8.27;95.13;150750.94;10401525;28;20555;-73
2023/11/10 07:32:49;;;;;;;1.58;1.30;;;;;;;8.24;95.93;150743.25;10419812;28;20048;-73
2023/11/10 07:37:52;;;;;;;1.40;1.00;;;;;;;8.21;95.78;150736.78;10418673;28;20125;-73
2023/11/10 07:42:53;;;;;;;1.10;1.00;;;;;;;8.22;95.48;150739.34;10418791;28;20095;-72
2023/11/10 07:47:55;;;;;;;1.27;1.17;;;;;;;8.34;95.64;150770.28;10418091;28;20038;-72
2023/11/10 07:52:57;;;;;;;1.33;1.08;;;;;;;8.39;95.96;150780.66;10418276;28;20501;-72
2023/11/10 07:57:59;;;;;;;1.67;1.20;;;;;;;8.56;95.67;150824.50;10418937;28;20053;-72
2023/11/10 08:03:02;;;;;;;3.40;3.10;;;;;;;8.64;96.89;150843.84;10418484;28;20551;-73
2023/11/10 08:08:06;;;;;;;1.85;1.63;;;;;;;8.86;96.77;150899.28;10417051;28;20049;-73
2023/11/10 08:13:08;;;;;;;6.32;2.70;;;;;;;8.89;97.07;150908.28;10419686;28;20051;-73
2023/11/10 08:18:11;;;;;;;3.88;1.83;;;;;;;8.99;99.15;150934.09;10419098;28;20068;-73
2023/11/10 08:23:14;;;;;;;2.22;2.03;;;;;;;9.10;100.00;150962.44;10417117;28;20044;-73
2023/11/10 08:28:17;;;;;;;1.77;1.67;;;;;;;9.34;98.80;151021.78;10417161;28;20090;-73
2023/11/10 08:33:19;;;;;;;1.73;1.60;;;;;;;9.60;96.34;151088.84;10418014;28;20037;-74
2023/11/10 08:38:21;;;;;;;2.63;1.95;;;;;;;9.81;95.18;151140.47;10416905;28;20049;-73
2023/11/10 08:43:24;;;;;;;1.80;1.70;;;;;;;9.97;91.80;151181.78;10418814;28;20432;-73
2023/11/10 08:48:25;;;;;;;3.35;1.10;;;;;;;10.23;87.37;151247.63;10416513;28;20038;-73
2023/11/10 08:53:29;;;;;;;2.60;0.98;;;;;;;10.42;81.62;151294.13;10417105;28;20104;-73
2023/11/10 08:58:30;;;;;;;0.95;0.70;;;;;;;10.49;80.46;151312.19;10417270;28;20049;-73
2023/11/10 09:03:32;;;;;;;1.13;0.60;;;;;;;10.41;80.75;151292.84;10417479;28;20078;-73
2023/11/10 09:08:34;;;;;;;0.90;0.70;;;;;;;10.42;80.84;151294.13;10416175;28;20121;-73
2023/11/10 09:13:39;;;;;;;0.77;0.70;;;;;;;10.27;83.51;151258.00;10415029;28;20046;-73
2023/11/10 09:18:41;;;;;;;1.85;1.38;;;;;;;10.43;82.28;151296.72;10416140;28;20092;-73
2023/11/10 09:23:44;;;;;;;1.35;0.80;;;;;;;10.39;82.39;151286.38;10401514;28;20045;-73
2023/11/10 09:28:48;;;;;;;0.70;0.52;;;;;;;10.39;83.97;151286.38;10379755;28;20037;-72
2023/11/10 09:33:53;;;;;;;0.55;0.55;;;;;;;10.38;84.78;151283.81;10375639;28;20050;-73
2023/11/10 09:38:56;;;;;;;0.90;0.63;;;;;;;10.40;83.91;151290.22;10391897;28;20050;-72
2023/11/10 09:43:59;;;;;;;0.55;0.43;;;;;;;10.76;76.88;151381.94;10382656;28;20104;-72
2023/11/10 09:49:04;;;;;;;0.77;0.50;;;;;;;10.79;77.77;151388.38;10381963;28;20060;-72
2023/11/10 09:54:08;;;;;;;0.60;0.45;;;;;;;10.67;80.34;151358.72;10382977;28;20100;-73
2023/11/10 09:59:12;;;;;;;0.80;0.80;;;;;;;10.79;80.31;151389.66;10381340;28;20144;-73
2023/11/10 10:04:14;;;;;;;0.45;0.45;;;;;;;10.84;78.18;151402.56;10383156;28;20077;-73
2023/11/10 10:09:18;;;;;;;0.77;0.40;;;;;;;10.92;73.45;151421.94;10383293;28;20088;-74
2023/11/10 10:14:20;;;;;;;0.70;0.40;;;;;;;10.91;74.01;151418.09;10383323;28;20050;-76
2023/11/10 10:19:23;;;;;;;0.40;0.40;;;;;;;10.96;72.34;151431.00;10383107;28;20038;-75
2023/11/10 10:24:26;;;;;;;1.00;0.43;;;;;;;10.95;73.11;151428.44;10382251;28;20092;-74
2023/11/10 10:29:29;;;;;;;0.28;0.20;;;;;;;10.78;74.97;151387.09;10382038;28;20161;-74
2023/11/10 10:34:31;;;;;;;0.50;0.30;;;;;;;10.72;73.37;151370.34;10382256;28;20073;-72
2023/11/10 10:39:33;;;;;;;0.80;0.40;;;;;;;11.06;72.27;151458.09;10382519;28;20042;-74
2023/11/10 10:44:35;;;;;;;0.45;0.30;;;;;;;11.17;72.48;151485.25;10381319;28;20054;-74
2023/11/10 10:49:40;;;;;;;0.68;0.30;;;;;;;11.39;74.20;151540.81;10379763;28;20049;-74
2023/11/10 10:54:42;;;;;;;0.60;0.30;;;;;;;11.26;73.16;151508.50;10380581;28;20117;-74
2023/11/10 10:59:45;;;;;;;0.65;0.30;;;;;;;11.18;71.34;151487.84;10380518;28;20046;-74
2023/11/10 11:04:59;;;;;;;0.45;0.20;;;;;;;11.30;70.00;151517.56;10380401;28;20048;-73
2023/11/10 11:10:23;;;;;;;0.40;0.20;;;;;;;11.52;68.83;151573.13;10381573;28;20042;-73
2023/11/10 11:15:46;;;;;;;2.25;0.20;;;;;;;11.34;69.02;151527.91;10381446;28;20449;-74
2023/11/10 11:20:49;;;;;;;0.32;0.20;;;;;;;11.28;70.49;151512.38;10380322;28;20038;-74
2023/11/10 11:26:01;;;;;;;0.50;0.20;;;;;;;11.47;64.78;151560.22;10381579;28;20462;-73
2023/11/10 11:31:11;;;;;;;0.20;0.20;;;;;;;11.47;64.10;151560.22;10380869;28;20038;-73
2023/11/10 11:36:16;;;;;;;0.17;0.17;;;;;;;11.26;65.19;151508.50;10379641;28;20052;-73
2023/11/10 11:41:19;;;;;;;0.17;0.10;;;;;;;11.03;68.73;151450.41;10381208;28;20053;-74
2023/11/10 11:46:21;;;;;;;0.20;0.13;;;;;;;10.89;71.98;151412.91;10380317;28;20056;-74
2023/11/10 11:51:23;;;;;;;0.17;0.10;;;;;;;10.73;74.85;151374.19;10379583;28;20176;-73
2023/11/10 11:56:25;;;;;;;0.10;0.10;;;;;;;10.72;73.24;151370.34;10379857;28;20504;-74
2023/11/10 12:01:27;;;;;;;0.10;0.10;;;;;;;10.52;77.12;151321.22;10380627;28;20049;-73
2023/11/10 12:06:29;;;;;;;0.28;0.10;;;;;;;10.35;81.84;151277.34;10379464;28;20041;-75
2023/11/10 12:11:32;;;;;;;0.43;0.10;;;;;;;10.27;81.67;151256.66;10380224;28;20050;-75
2023/11/10 12:16:38;;;;;;;0.20;0.17;;;;;;;10.30;82.80;151265.72;10379526;28;20050;-75
2023/11/10 12:21:42;;;;;;;1.05;0.30;;;;;;;10.27;85.01;151256.66;10379827;28;20072;-76
2023/11/10 12:26:44;;;;;;;0.95;0.40;;;;;;;10.67;80.14;151358.72;10379204;28;20044;-74
2023/11/10 12:31:49;;;;;;;1.02;0.68;;;;;;;10.65;81.05;151353.53;10378655;28;20100;-74
2023/11/10 12:36:51;;;;;;;0.22;0.20;;;;;;;10.82;76.25;151397.44;10377162;28;20046;-73
2023/11/10 12:41:56;;;;;;;2.65;2.40;;;;;;;10.64;78.61;151349.66;10377873;28;20069;-74
2023/11/10 12:47:00;;;;;;;0.65;0.20;;;;;;;10.89;75.71;151412.91;10378265;28;20093;-74
2023/11/10 12:52:09;;;;;;;0.73;0.30;;;;;;;10.97;74.32;151433.56;10378384;28;20440;-74
2023/11/10 12:57:11;;;;;;;0.63;0.20;;;;;;;10.93;71.97;151424.53;10377460;28;20096;-76
2023/11/10 13:02:13;;;;;;;0.20;0.10;;;;;;;10.69;74.33;151362.56;10377567;28;20046;-74
2023/11/10 13:07:16;;;;;;;1.30;0.13;;;;;;;10.36;70.18;151279.94;10377482;28;20048;-73
2023/11/10 13:12:19;;;;;;;0.10;0.10;;;;;;;9.84;72.27;151148.25;10376575;28;20049;-73
2023/11/10 13:17:21;;;;;;;0.20;0.10;;;;;;;9.62;75.07;151091.47;10386046;28;20046;-72
2023/11/10 13:22:23;;;;;;;0.30;0.10;;;;;;;9.51;78.74;151065.63;10383530;23;20054;-72
2023/11/10 13:27:26;;;;;;;1.83;1.13;;;;;;;9.53;79.52;151070.81;10362860;28;20472;-71
2023/11/10 13:32:28;;;;;;;0.32;0.10;;;;;;;9.72;80.75;151118.53;10374128;28;20084;-71
2023/11/10 13:37:31;;;;;;;6.05;3.90;;;;;;;9.83;78.64;151145.66;10375337;28;20030;-70
2023/11/10 13:42:33;;;;;;;2.85;1.52;;;;;;;9.70;79.45;151112.13;10375392;28;20405;-72
2023/11/10 13:47:35;;;;;;;2.33;1.52;;;;;;;9.62;81.22;151091.47;10375465;28;20560;-71
2023/11/10 13:52:38;;;;;;;0.30;0.20;;;;;;;9.72;78.37;151117.25;10374290;28;20125;-71
2023/11/10 13:57:41;;;;;;;0.20;0.20;;;;;;;9.76;77.54;151128.88;10373067;28;20042;-71
2023/11/10 14:02:43;;;;;;;0.20;0.20;;;;;;;9.34;81.12;151021.78;10372092;28;20137;-71
2023/11/10 14:07:45;;;;;;;1.48;0.90;;;;;;;9.37;80.81;151029.53;10373461;28;20065;-71
2023/11/10 14:12:48;;;;;;;1.05;0.20;;;;;;;9.29;82.93;151010.16;10372983;28;20042;-70
2023/11/10 14:17:50;;;;;;;1.00;0.80;;;;;;;9.09;84.74;150959.88;10373887;28;20061;-70
2023/11/10 14:22:52;;;;;;;0.70;0.30;;;;;;;9.01;85.40;150937.94;10376783;28;20457;-71
2023/11/10 14:27:53;;;;;;;0.08;0.08;;;;;;;9.50;75.91;151063.06;10380477;28;20041;-70
2023/11/10 14:32:56;;;;;;;0.28;0.10;;;;;;;9.58;72.68;151083.72;10378651;28;20115;-70
2023/11/10 14:37:58;;;;;;;0.25;0.20;;;;;;;9.53;72.53;151070.81;10379150;28;20042;-71
2023/11/10 14:43:05;;;;;;;1.15;0.85;;;;;;;9.35;74.41;151025.66;10378876;28;20050;-70
2023/11/10 14:48:06;;;;;;;0.43;0.28;;;;;;;9.18;72.50;150980.53;10380447;28;20045;-70
2023/11/10 14:53:17;;;;;;;0.68;0.68;;;;;;;9.34;71.79;151021.78;10380575;28;20056;-71
2023/11/10 14:58:19;;;;;;;1.17;0.70;;;;;;;9.02;74.77;150940.53;10380115;28;20092;-71
2023/11/10 15:03:23;;;;;;;1.10;0.70;;;;;;;8.74;76.08;150869.63;10380601;28;20544;-71
2023/11/10 15:08:25;;;;;;;0.50;0.30;;;;;;;8.77;75.54;150878.66;10379715;28;20077;-71
2023/11/10 15:13:26;;;;;;;0.40;0.40;;;;;;;8.41;78.54;150785.78;10381048;28;20520;-71
2023/11/10 15:18:30;;;;;;;0.68;0.43;;;;;;;8.23;80.38;150740.63;10380527;28;20038;-71
2023/11/10 15:23:32;;;;;;;1.40;0.40;;;;;;;8.09;82.04;150707.13;10413918;28;20037;-72
2023/11/10 15:28:37;;;;;;;0.55;0.45;;;;;;;7.95;83.09;150669.78;10420984;28;20412;-69
2023/11/10 15:33:44;;;;;;;0.77;0.47;;;;;;;7.89;83.73;150655.59;10419477;28;20053;-70
2023/11/10 15:38:46;;;;;;;0.80;0.50;;;;;;;7.87;84.76;150649.16;10402012;28;20050;-70
2023/11/10 15:43:48;;;;;;;0.90;0.60;;;;;;;7.90;85.86;150658.19;10376886;28;20456;-70
2023/11/10 15:48:50;;;;;;;0.88;0.65;;;;;;;8.04;86.18;150694.25;10411428;28;20124;-71
2023/11/10 15:53:55;;;;;;;2.45;1.33;;;;;;;8.17;84.19;150726.47;10418947;28;20077;-70
2023/11/10 15:58:57;;;;;;;1.25;0.80;;;;;;;8.25;84.05;150745.81;10407138;28;20049;-70
2023/11/10 16:03:59;;;;;;;1.02;0.82;;;;;;;8.15;85.00;150721.34;10380246;28;20046;-70
2023/11/10 16:09:04;;;;;;;1.77;0.88;;;;;;;8.22;84.81;150739.34;10379576;28;20034;-71
2023/11/10 16:14:06;;;;;;;1.52;0.95;;;;;;;8.32;82.90;150763.84;10378016;28;20068;-70
2023/11/10 16:19:10;;;;;;;1.58;1.00;;;;;;;8.18;83.03;150727.75;10379555;28;20049;-70
2023/11/10 16:24:12;;;;;;;2.17;1.23;;;;;;;8.00;84.06;150683.94;10377271;28;20046;-70
2023/11/10 16:29:15;;;;;;;2.03;0.90;;;;;;;7.57;86.72;150575.75;10376735;28;20045;-71
2023/11/10 16:34:18;;;;;;;1.10;0.82;;;;;;;7.20;89.75;150481.69;10375009;28;20531;-71
2023/11/10 16:39:21;;;;;;;1.20;0.80;;;;;;;6.96;91.51;150421.19;10377555;28;20042;-71
2023/11/10 16:44:24;;;;;;;2.22;1.25;;;;;;;6.81;93.79;150383.81;10376432;28;20042;-71
2023/11/10 16:49:26;;;;;;;2.03;0.98;;;;;;;6.98;94.49;150425.03;10376352;28;20490;-71
2023/11/10 16:54:28;;;;;;;1.70;1.50;;;;;;;6.90;95.93;150405.72;10375966;28;21365;-70
2023/11/10 16:59:30;;;;;;;2.33;1.40;;;;;;;6.75;95.59;150368.38;10375667;28;20377;-70
2023/11/10 17:04:32;;;;;;;2.58;1.90;;;;;;;6.49;97.25;150301.47;10374291;28;20050;-71
2023/11/10 17:09:34;;;;;;;2.55;1.98;;;;;;;6.33;98.03;150261.59;10376833;28;20413;-70
2023/11/10 17:14:36;;;;;;;2.88;1.90;;;;;;;6.19;99.13;150225.53;10376443;28;20076;-71
2023/11/10 17:19:37;;;;;;;3.75;2.20;;;;;;;6.22;98.37;150234.53;10375339;28;20460;-71
2023/11/10 17:24:39;;;;;;;4.35;2.65;;;;;;;6.38;98.85;150273.16;10375408;28;20416;-70
2023/11/10 17:29:42;;;;;;;4.53;3.25;;;;;;;5.95;100.00;150166.34;10375190;28;20046;-70
2023/11/10 17:34:47;;;;;;;5.32;3.72;;;;;;;6.04;100.00;150188.22;10375733;28;20520;-70
2023/11/10 17:39:51;;;;;;;6.80;4.65;;;;;;;5.94;100.00;150163.78;10374795;28;20042;-71
2023/11/10 17:44:53;;;;;;;6.97;5.55;;;;;;;5.96;100.00;150167.63;10374971;28;20045;-71
2023/11/10 17:49:58;;;;;;;8.88;6.30;;;;;;;6.16;100.00;150217.81;10375764;28;20125;-71
2023/11/10 17:54:59;;;;;;;16.08;13.27;;;;;;;5.94;100.00;150163.78;10374894;28;20066;-71
2023/11/10 18:00:02;;;;;;;9.50;5.80;;;;;;;5.77;100.00;150120.00;10383326;28;20041;-71
2023/11/10 18:05:13;;;;;;;13.45;7.95;;;;;;;5.75;100.00;150114.81;10382669;28;20406;-71
2023/11/10 18:10:15;;;;;;;7.93;6.43;;;;;;;5.61;100.00;150080.09;10382210;28;20042;-71
2023/11/10 18:15:16;;;;;;;6.20;4.05;;;;;;;5.76;100.00;150118.72;10382239;28;20049;-71
2023/11/10 18:20:18;;;;;;;3.80;3.05;;;;;;;5.71;100.00;150105.84;10382758;28;20060;-70
2023/11/10 18:25:20;;;;;;;4.07;2.88;;;;;;;5.73;100.00;150110.97;10383258;28;20038;-70
2023/11/10 18:30:22;;;;;;;4.18;2.95;;;;;;;5.67;99.20;150094.28;10384369;28;20038;-71
2023/11/10 18:35:27;;;;;;;4.90;3.22;;;;;;;5.59;98.68;150073.69;10382216;28;20489;-71
2023/11/10 18:40:28;;;;;;;10.25;5.40;;;;;;;5.53;97.51;150059.50;10381490;28;20081;-71
2023/11/10 18:45:30;;;;;;;8.25;4.65;;;;;;;5.60;96.08;150077.53;10380215;28;20050;-72
2023/11/10 18:50:32;;;;;;;8.52;3.75;;;;;;;5.56;95.17;150068.53;10382305;28;20076;-72
2023/11/10 18:55:33;;;;;;;6.05;3.92;;;;;;;5.44;94.78;150036.38;10410436;28;20050;-71
2023/11/10 19:00:35;;;;;;;5.70;3.90;;;;;;;5.16;96.65;149965.66;10383951;28;20071;-70
2023/11/10 19:05:37;;;;;;;8.52;3.78;;;;;;;4.96;97.46;149915.53;10380308;28;20042;-70
2023/11/10 19:10:39;;;;;;;4.53;3.90;;;;;;;4.77;98.88;149869.22;10377356;28;20080;-70
2023/11/10 19:15:41;;;;;;;8.00;4.40;;;;;;;5.00;98.72;149925.78;10378537;28;20057;-70
2023/11/10 19:20:43;;;;;;;6.25;4.82;;;;;;;4.60;99.78;149824.25;10378589;28;20104;-71
2023/11/10 19:25:45;;;;;;;6.10;5.05;;;;;;;4.43;100.00;149783.16;10406977;22;20049;-74
2023/11/10 19:30:47;;;;;;;8.93;6.78;;;;;;;4.29;100.00;149748.47;10420069;28;20473;-74
2023/11/10 19:35:49;;;;;;;7.75;5.85;;;;;;;4.51;100.00;149802.41;10421040;28;20068;-75
2023/11/10 19:40:50;;;;;;;8.98;4.68;;;;;;;4.58;98.55;149819.13;10419595;28;20420;-76
2023/11/10 19:45:52;;;;;;;4.25;2.95;;;;;;;4.39;99.24;149772.88;10419550;28;20068;-75
2023/11/10 19:50:54;;;;;;;7.53;3.38;;;;;;;4.46;98.40;149790.84;10420341;28;20432;-74
2023/11/10 19:55:56;;;;;;;8.20;3.00;;;;;;;4.64;95.80;149835.81;10419347;28;20073;-75
2023/11/10 20:00:58;;;;;;;2.63;2.10;;;;;;;4.58;96.38;149820.41;10418881;28;20567;-74
2023/11/10 20:06:00;;;;;;;3.35;2.33;;;;;;;4.66;95.82;149840.97;10420654;28;20103;-75
2023/11/10 20:11:02;;;;;;;2.53;1.80;;;;;;;4.77;93.86;149867.94;10420143;28;20041;-75
2023/11/10 20:16:04;;;;;;;9.40;1.90;;;;;;;4.88;92.58;149896.25;10419336;28;20083;-74
2023/11/10 20:21:08;;;;;;;2.05;1.58;;;;;;;4.90;92.41;149901.38;10420049;28;20041;-75
2023/11/10 20:26:10;;;;;;;4.30;1.90;;;;;;;5.09;90.46;149947.66;10418262;28;20048;-75
2023/11/10 20:31:11;;;;;;;1.98;1.35;;;;;;;5.19;89.23;149974.66;10417913;28;20065;-74
2023/11/10 20:36:13;;;;;;;1.77;1.50;;;;;;;4.99;90.74;149923.22;10417302;28;20042;-72
2023/11/10 20:41:15;;;;;;;3.33;2.00;;;;;;;4.91;91.84;149902.66;10416953;28;20053;-73
2023/11/10 20:46:17;;;;;;;2.90;1.83;;;;;;;4.73;92.94;149858.94;10418206;28;20041;-73
2023/11/10 20:51:22;;;;;;;4.05;2.55;;;;;;;4.69;93.23;149847.38;10418102;28;20465;-73
2023/11/10 20:56:25;;;;;;;3.78;2.33;;;;;;;4.63;94.29;149831.97;10416332;28;20057;-73
2023/11/10 21:01:27;;;;;;;2.70;1.70;;;;;;;4.57;94.80;149817.84;10417191;28;20112;-73
2023/11/10 21:06:28;;;;;;;3.95;1.90;;;;;;;4.51;95.39;149803.69;10416916;28;20115;-72
2023/11/10 21:11:30;;;;;;;3.08;1.80;;;;;;;4.57;96.82;149816.56;10415227;28;20050;-74
2023/11/10 21:16:32;;;;;;;3.63;2.38;;;;;;;4.46;97.21;149789.56;10415563;28;20064;-73
2023/11/10 21:21:34;;;;;;;5.20;2.70;;;;;;;4.45;97.73;149788.28;10416554;28;20049;-73
2023/11/10 21:26:36;;;;;;;4.20;2.53;;;;;;;4.32;98.37;149754.88;10414934;28;20144;-72
2023/11/10 21:31:38;;;;;;;2.92;1.67;;;;;;;4.64;94.94;149835.81;10416139;28;20073;-73
2023/11/10 21:36:39;;;;;;;3.15;1.52;;;;;;;4.65;93.43;149838.44;10416397;28;20045;-73
2023/11/10 21:41:43;;;;;;;1.67;1.00;;;;;;;4.50;93.99;149801.13;10416548;28;20073;-73
2023/11/10 21:46:45;;;;;;;1.20;0.77;;;;;;;4.65;93.88;149837.09;10415248;28;20080;-72
2023/11/10 21:51:47;;;;;;;1.75;0.90;;;;;;;4.58;93.04;149819.13;10416170;28;20112;-73
2023/11/10 21:56:49;;;;;;;1.25;0.73;;;;;;;4.71;93.07;149853.81;10416347;28;20067;-74
2023/11/10 22:01:51;;;;;;;1.30;0.80;;;;;;;4.96;89.09;149916.84;10416707;28;20068;-73
2023/11/10 22:06:53;;;;;;;0.80;0.60;;;;;;;5.06;88.35;149942.53;10415817;28;20045;-74
2023/11/10 22:11:54;;;;;;;0.60;0.40;;;;;;;5.01;87.89;149928.41;10416400;28;20095;-73
2023/11/10 22:16:56;;;;;;;0.77;0.50;;;;;;;5.25;86.24;149988.81;10415815;28;20120;-74
2023/11/10 22:22:02;;;;;;;1.27;0.65;;;;;;;5.20;85.72;149975.94;10416105;28;20048;-74
2023/11/10 22:27:04;;;;;;;0.87;0.67;;;;;;;5.17;85.57;149969.50;10415601;28;20076;-73
2023/11/10 22:32:06;;;;;;;1.90;0.75;;;;;;;4.92;87.13;149906.53;10415620;28;20049;-74
2023/11/10 22:37:08;;;;;;;1.65;0.60;;;;;;;4.71;88.71;149853.81;10415296;28;20049;-72
2023/11/10 22:42:09;;;;;;;1.05;0.40;;;;;;;4.61;88.99;149826.84;10417918;28;20041;-73
2023/11/10 22:47:11;;;;;;;2.88;0.50;;;;;;;4.59;89.58;149822.97;10423107;28;20072;-74
2023/11/10 22:52:13;;;;;;;1.52;0.50;;;;;;;4.60;89.84;149825.53;10422397;28;20108;-73
2023/11/10 22:57:15;;;;;;;1.63;0.57;;;;;;;4.43;90.04;149781.88;10420922;28;20430;-73
2023/11/10 23:02:20;;;;;;;0.73;0.60;;;;;;;4.24;91.04;149735.59;10421220;28;20069;-73
2023/11/10 23:07:22;;;;;;;0.57;0.50;;;;;;;4.15;91.76;149711.19;10421098;28;20037;-73
2023/11/10 23:12:25;;;;;;;0.70;0.40;;;;;;;4.10;92.31;149699.63;10420702;28;20064;-73
2023/11/10 23:17:27;;;;;;;1.23;0.60;;;;;;;4.04;93.86;149685.50;10451586;28;20056;-73
2023/11/10 23:22:29;;;;;;;0.82;0.57;;;;;;;3.96;95.21;149663.69;10419886;28;20512;-73